Saint Augustine, FL

10:36 AM EDT on August 30, 2014 (GMT -0400)
Saint Augustine | Change Station
CLOSE
Current Station
Airport
Location: St. Augustine,
Elevation: 10 ft
Nearby Weather Stations

Elev 10 ft 29.96 °N, 81.34 °W | Updated 38 minutes ago

Clear
Clear
84 °F
Feels Like 93 °F
N
0
Wind Variable Wind from North

Today
High -- | Low -- °F
--% Chance of Precip.
Yesterday
High -- | Low -- °F
Precip. -- in
7:01 AM 7:50 PM
Waxing Crescent, 22% visible
Pressure 30.16 in
Visibility 10.0 miles
Clouds Clear
Heat Index 93 °F
Dew Point 76 °F
Humidity 76%
Rainfall 0.00 in
Snow Depth Not available.
UV 6 out of 12
Pollen 8.10 out of 12
Ozone Good
PM2.5 Good
Flu Activity Not available.
METAR KSGJ 301358Z 00000KT 10SM CLR 29/24 A3016 RMK AO2 SLP213 T02890244

More Conditions Fewer Conditions

Pressure 30.16 in
Visibility 10.0 miles
Clouds Clear
Heat Index 93 °F
Dew Point 76 °F
Humidity 76%
Rainfall 0.00 in
Snow Depth Not available.
UV 6 out of 12
Pollen 8.10 out of 12
Ozone Good
PM2.5 Good
Flu Activity Not available.
METAR KSGJ 301358Z 00000KT 10SM CLR 29/24 A3016 RMK AO2 SLP213 T02890244

More Conditions Fewer Conditions

10-Day Weather Forecast

Almanac

Astronomy

Aug. 30, 2014 Rise Set
Actual Time 7:01 AM EDT 7:50 PM EDT
Civil Twilight 6:36 AM EDT 8:14 PM EDT
Nautical Twilight 6:08 AM EDT 8:43 PM EDT
Astronomical Twilight 5:38 AM EDT 9:12 PM EDT
Moon 11:24 AM EDT 10:47 PM EDT
Length of Visible Light 13h 37m
Length of Day
12h 48m
Tomorrow will be 1m 43s shorter.
Waxing Crescent, 22% of the Moon is Illuminated
Today
Waxing Crescent
Sep 2
First Quarter
Sep 8
Full
Sep 15
Last Quarter
Sep 24
New

Today's Extremes

State Highs State Lows

Community

WunderPhotos

Upload Photos

1,748,523 photos uploaded!

WunderBlogs® & News

Nearby

Air Quality

  Air Quality AQ Index Pollutant
Yesterday Good
OZONE
Yesterday Good
PM2.5
Current Good
PM2.5
Current Good
OZONE
Saturday Good
OZONE
Saturday Good
PM2.5
Sunday Good
OZONE
Sunday Good
PM2.5
Monday Good
OZONE
Monday Good
PM2.5
Tuesday Good
OZONE
Tuesday Good
PM2.5
Wednesday Good
OZONE
Wednesday Good
PM2.5

Snow Depth

Station Depth Elevation
No new snow has been reported.

Earthquake Activity

City Distance Mag. Time & Date
No recent earthquake activity has been reported nearby.
Minimum magnitude displayed is 2.5.

Coastal Water Temperatures

Place Temperature
Mayport (Bar Pilots Dock), FL 84.9 °F
Fernandina Beach, FL 84.0 °F
Trident Pier, FL 84.9 °F

Nearby Weather Stations